sensor_id;sensor_type;location;lat;lon;timestamp;P1;durP1;ratioP1;P2;durP2;ratioP2
57155;SDS011;43023;59.928;10.682;2022-12-10T00:01:24;7.72;;;5.55;;
57155;SDS011;43023;59.928;10.682;2022-12-10T00:03:51;7.13;;;5.20;;
57155;SDS011;43023;59.928;10.682;2022-12-10T00:06:18;6.95;;;5.28;;
57155;SDS011;43023;59.928;10.682;2022-12-10T00:08:45;9.05;;;5.50;;
57155;SDS011;43023;59.928;10.682;2022-12-10T00:11:12;8.65;;;6.05;;
57155;SDS011;43023;59.928;10.682;2022-12-10T00:13:38;6.80;;;5.28;;
57155;SDS011;43023;59.928;10.682;2022-12-10T00:16:05;7.63;;;5.40;;
57155;SDS011;43023;59.928;10.682;2022-12-10T00:18:32;8.38;;;5.32;;
57155;SDS011;43023;59.928;10.682;2022-12-10T00:21:01;5.70;;;4.95;;
57155;SDS011;43023;59.928;10.682;2022-12-10T00:23:27;9.15;;;5.05;;
57155;SDS011;43023;59.928;10.682;2022-12-10T00:26:00;6.38;;;5.18;;
57155;SDS011;43023;59.928;10.682;2022-12-10T00:28:26;7.20;;;4.82;;
57155;SDS011;43023;59.928;10.682;2022-12-10T00:30:52;7.50;;;5.03;;
57155;SDS011;43023;59.928;10.682;2022-12-10T00:33:18;7.15;;;4.72;;
57155;SDS011;43023;59.928;10.682;2022-12-10T00:35:44;7.70;;;5.15;;
57155;SDS011;43023;59.928;10.682;2022-12-10T00:38:10;6.00;;;4.57;;
57155;SDS011;43023;59.928;10.682;2022-12-10T00:40:37;6.57;;;4.45;;
57155;SDS011;43023;59.928;10.682;2022-12-10T00:43:03;5.95;;;4.38;;
57155;SDS011;43023;59.928;10.682;2022-12-10T00:45:29;7.03;;;4.80;;
57155;SDS011;43023;59.928;10.682;2022-12-10T00:47:55;6.20;;;4.22;;
57155;SDS011;43023;59.928;10.682;2022-12-10T00:50:21;5.57;;;4.03;;
57155;SDS011;43023;59.928;10.682;2022-12-10T00:52:47;6.05;;;3.97;;
57155;SDS011;43023;59.928;10.682;2022-12-10T00:55:13;5.05;;;4.03;;
57155;SDS011;43023;59.928;10.682;2022-12-10T00:57:39;5.75;;;4.10;;
57155;SDS011;43023;59.928;10.682;2022-12-10T01:00:05;5.25;;;4.05;;
57155;SDS011;43023;59.928;10.682;2022-12-10T01:02:32;6.15;;;3.78;;
57155;SDS011;43023;59.928;10.682;2022-12-10T01:04:58;5.40;;;3.95;;
57155;SDS011;43023;59.928;10.682;2022-12-10T01:07:24;6.28;;;4.32;;
57155;SDS011;43023;59.928;10.682;2022-12-10T01:09:50;3.97;;;3.58;;
57155;SDS011;43023;59.928;10.682;2022-12-10T01:12:16;4.82;;;3.00;;
57155;SDS011;43023;59.928;10.682;2022-12-10T01:14:42;7.25;;;3.95;;
57155;SDS011;43023;59.928;10.682;2022-12-10T01:17:08;5.28;;;3.63;;
57155;SDS011;43023;59.928;10.682;2022-12-10T01:19:34;5.45;;;3.00;;
57155;SDS011;43023;59.928;10.682;2022-12-10T01:22:00;5.45;;;4.03;;
57155;SDS011;43023;59.928;10.682;2022-12-10T01:24:27;5.38;;;3.67;;
57155;SDS011;43023;59.928;10.682;2022-12-10T01:26:53;5.38;;;3.60;;
57155;SDS011;43023;59.928;10.682;2022-12-10T01:29:22;3.60;;;2.65;;
57155;SDS011;43023;59.928;10.682;2022-12-10T01:31:52;4.10;;;3.05;;
57155;SDS011;43023;59.928;10.682;2022-12-10T01:34:18;4.97;;;3.10;;
57155;SDS011;43023;59.928;10.682;2022-12-10T01:36:45;3.97;;;2.90;;
57155;SDS011;43023;59.928;10.682;2022-12-10T01:39:14;4.50;;;2.80;;
57155;SDS011;43023;59.928;10.682;2022-12-10T01:41:49;3.83;;;2.33;;
57155;SDS011;43023;59.928;10.682;2022-12-10T01:46:42;4.03;;;2.90;;
57155;SDS011;43023;59.928;10.682;2022-12-10T01:49:09;3.53;;;2.65;;
57155;SDS011;43023;59.928;10.682;2022-12-10T01:51:36;4.50;;;2.38;;
57155;SDS011;43023;59.928;10.682;2022-12-10T01:54:03;4.55;;;2.97;;
57155;SDS011;43023;59.928;10.682;2022-12-10T01:56:29;3.35;;;2.92;;
57155;SDS011;43023;59.928;10.682;2022-12-10T01:58:57;3.00;;;2.38;;
57155;SDS011;43023;59.928;10.682;2022-12-10T02:01:37;4.78;;;2.47;;
57155;SDS011;43023;59.928;10.682;2022-12-10T02:09:12;3.97;;;2.58;;
57155;SDS011;43023;59.928;10.682;2022-12-10T02:11:48;3.03;;;2.42;;
57155;SDS011;43023;59.928;10.682;2022-12-10T02:14:17;2.40;;;2.10;;
57155;SDS011;43023;59.928;10.682;2022-12-10T02:17:05;3.80;;;2.53;;
57155;SDS011;43023;59.928;10.682;2022-12-10T02:21:59;2.42;;;2.13;;
57155;SDS011;43023;59.928;10.682;2022-12-10T02:24:28;4.78;;;2.28;;
57155;SDS011;43023;59.928;10.682;2022-12-10T02:29:24;2.60;;;1.92;;
57155;SDS011;43023;59.928;10.682;2022-12-10T02:32:13;4.72;;;2.90;;
57155;SDS011;43023;59.928;10.682;2022-12-10T02:34:41;2.28;;;1.90;;
57155;SDS011;43023;59.928;10.682;2022-12-10T02:37:15;2.97;;;2.10;;
57155;SDS011;43023;59.928;10.682;2022-12-10T02:39:46;2.58;;;1.73;;
57155;SDS011;43023;59.928;10.682;2022-12-10T02:42:14;2.83;;;2.00;;
57155;SDS011;43023;59.928;10.682;2022-12-10T02:44:41;2.55;;;1.70;;
57155;SDS011;43023;59.928;10.682;2022-12-10T02:47:08;3.15;;;1.67;;
57155;SDS011;43023;59.928;10.682;2022-12-10T02:49:35;2.42;;;1.90;;
57155;SDS011;43023;59.928;10.682;2022-12-10T02:52:06;2.05;;;1.80;;
57155;SDS011;43023;59.928;10.682;2022-12-10T02:54:37;2.40;;;1.77;;
57155;SDS011;43023;59.928;10.682;2022-12-10T02:57:47;2.38;;;1.80;;
57155;SDS011;43023;59.928;10.682;2022-12-10T03:03:01;2.10;;;1.63;;
57155;SDS011;43023;59.928;10.682;2022-12-10T03:05:50;2.85;;;1.75;;
57155;SDS011;43023;59.928;10.682;2022-12-10T03:08:24;1.77;;;1.58;;
57155;SDS011;43023;59.928;10.682;2022-12-10T03:10:54;2.00;;;1.70;;
57155;SDS011;43023;59.928;10.682;2022-12-10T03:13:22;2.40;;;1.63;;
57155;SDS011;43023;59.928;10.682;2022-12-10T03:15:49;1.77;;;1.67;;
57155;SDS011;43023;59.928;10.682;2022-12-10T03:18:17;1.92;;;1.83;;
57155;SDS011;43023;59.928;10.682;2022-12-10T03:20:45;2.85;;;1.83;;
57155;SDS011;43023;59.928;10.682;2022-12-10T03:23:13;2.42;;;1.92;;
57155;SDS011;43023;59.928;10.682;2022-12-10T03:25:40;2.33;;;2.03;;
57155;SDS011;43023;59.928;10.682;2022-12-10T03:28:06;2.13;;;1.55;;
57155;SDS011;43023;59.928;10.682;2022-12-10T03:30:33;2.78;;;1.80;;
57155;SDS011;43023;59.928;10.682;2022-12-10T03:33:00;2.35;;;2.00;;
57155;SDS011;43023;59.928;10.682;2022-12-10T03:35:27;2.10;;;1.73;;
57155;SDS011;43023;59.928;10.682;2022-12-10T03:37:54;2.17;;;1.83;;
57155;SDS011;43023;59.928;10.682;2022-12-10T03:40:21;2.10;;;1.58;;
57155;SDS011;43023;59.928;10.682;2022-12-10T03:42:47;1.30;;;1.13;;
57155;SDS011;43023;59.928;10.682;2022-12-10T03:45:14;1.98;;;1.63;;
57155;SDS011;43023;59.928;10.682;2022-12-10T03:47:40;1.83;;;1.48;;
57155;SDS011;43023;59.928;10.682;2022-12-10T03:50:06;1.38;;;1.27;;
57155;SDS011;43023;59.928;10.682;2022-12-10T03:52:33;1.67;;;1.50;;
57155;SDS011;43023;59.928;10.682;2022-12-10T03:54:59;1.55;;;1.38;;
57155;SDS011;43023;59.928;10.682;2022-12-10T03:57:25;2.47;;;1.20;;
57155;SDS011;43023;59.928;10.682;2022-12-10T03:59:51;1.50;;;1.20;;
57155;SDS011;43023;59.928;10.682;2022-12-10T04:02:17;1.77;;;1.45;;
57155;SDS011;43023;59.928;10.682;2022-12-10T04:04:43;1.40;;;1.30;;
57155;SDS011;43023;59.928;10.682;2022-12-10T04:07:09;0.95;;;0.90;;
57155;SDS011;43023;59.928;10.682;2022-12-10T04:09:35;1.77;;;1.40;;
57155;SDS011;43023;59.928;10.682;2022-12-10T04:12:01;1.48;;;1.00;;
57155;SDS011;43023;59.928;10.682;2022-12-10T04:14:28;1.20;;;0.98;;
57155;SDS011;43023;59.928;10.682;2022-12-10T04:17:12;0.93;;;0.82;;
57155;SDS011;43023;59.928;10.682;2022-12-10T04:19:39;1.10;;;0.82;;
57155;SDS011;43023;59.928;10.682;2022-12-10T04:22:05;1.10;;;1.00;;
57155;SDS011;43023;59.928;10.682;2022-12-10T04:24:50;0.95;;;0.88;;
57155;SDS011;43023;59.928;10.682;2022-12-10T04:27:38;0.93;;;0.80;;
57155;SDS011;43023;59.928;10.682;2022-12-10T04:30:05;1.75;;;0.80;;
57155;SDS011;43023;59.928;10.682;2022-12-10T04:32:31;1.23;;;1.02;;
57155;SDS011;43023;59.928;10.682;2022-12-10T04:34:57;1.20;;;0.80;;
57155;SDS011;43023;59.928;10.682;2022-12-10T04:37:24;1.02;;;1.00;;
57155;SDS011;43023;59.928;10.682;2022-12-10T04:39:50;0.80;;;0.80;;
57155;SDS011;43023;59.928;10.682;2022-12-10T04:42:17;0.90;;;0.77;;
57155;SDS011;43023;59.928;10.682;2022-12-10T04:44:43;0.80;;;0.80;;
57155;SDS011;43023;59.928;10.682;2022-12-10T04:47:10;1.10;;;0.77;;
57155;SDS011;43023;59.928;10.682;2022-12-10T04:49:36;0.80;;;0.70;;
57155;SDS011;43023;59.928;10.682;2022-12-10T04:52:02;1.02;;;0.90;;
57155;SDS011;43023;59.928;10.682;2022-12-10T04:54:29;0.70;;;0.70;;
57155;SDS011;43023;59.928;10.682;2022-12-10T04:56:55;0.47;;;0.47;;
57155;SDS011;43023;59.928;10.682;2022-12-10T04:59:21;0.63;;;0.60;;
57155;SDS011;43023;59.928;10.682;2022-12-10T05:01:47;1.27;;;0.80;;
57155;SDS011;43023;59.928;10.682;2022-12-10T05:04:14;0.50;;;0.50;;
57155;SDS011;43023;59.928;10.682;2022-12-10T05:06:40;0.57;;;0.47;;
57155;SDS011;43023;59.928;10.682;2022-12-10T05:09:07;0.70;;;0.70;;
57155;SDS011;43023;59.928;10.682;2022-12-10T05:11:33;0.50;;;0.50;;
57155;SDS011;43023;59.928;10.682;2022-12-10T05:14:00;0.50;;;0.50;;
57155;SDS011;43023;59.928;10.682;2022-12-10T05:16:27;0.98;;;0.55;;
57155;SDS011;43023;59.928;10.682;2022-12-10T05:18:53;1.00;;;0.77;;
57155;SDS011;43023;59.928;10.682;2022-12-10T05:21:20;0.60;;;0.60;;
57155;SDS011;43023;59.928;10.682;2022-12-10T05:23:48;0.30;;;0.30;;
57155;SDS011;43023;59.928;10.682;2022-12-10T05:26:23;0.57;;;0.57;;
57155;SDS011;43023;59.928;10.682;2022-12-10T05:28:51;0.38;;;0.38;;
57155;SDS011;43023;59.928;10.682;2022-12-10T05:31:19;0.60;;;0.55;;
57155;SDS011;43023;59.928;10.682;2022-12-10T05:33:45;0.50;;;0.50;;
57155;SDS011;43023;59.928;10.682;2022-12-10T05:36:12;0.52;;;0.30;;
57155;SDS011;43023;59.928;10.682;2022-12-10T05:38:39;0.40;;;0.40;;
57155;SDS011;43023;59.928;10.682;2022-12-10T05:41:06;0.43;;;0.43;;
57155;SDS011;43023;59.928;10.682;2022-12-10T05:43:32;0.73;;;0.73;;
57155;SDS011;43023;59.928;10.682;2022-12-10T05:46:02;0.30;;;0.30;;
57155;SDS011;43023;59.928;10.682;2022-12-10T05:48:29;0.38;;;0.38;;
57155;SDS011;43023;59.928;10.682;2022-12-10T05:50:55;0.65;;;0.30;;
57155;SDS011;43023;59.928;10.682;2022-12-10T05:53:21;0.40;;;0.40;;
57155;SDS011;43023;59.928;10.682;2022-12-10T05:55:47;0.32;;;0.32;;
57155;SDS011;43023;59.928;10.682;2022-12-10T05:58:13;0.28;;;0.28;;
57155;SDS011;43023;59.928;10.682;2022-12-10T06:00:39;0.40;;;0.40;;
57155;SDS011;43023;59.928;10.682;2022-12-10T06:03:06;0.40;;;0.40;;
57155;SDS011;43023;59.928;10.682;2022-12-10T06:05:36;0.65;;;0.52;;
57155;SDS011;43023;59.928;10.682;2022-12-10T06:08:02;0.40;;;0.40;;
57155;SDS011;43023;59.928;10.682;2022-12-10T06:10:28;0.40;;;0.40;;
57155;SDS011;43023;59.928;10.682;2022-12-10T06:12:54;0.40;;;0.35;;
57155;SDS011;43023;59.928;10.682;2022-12-10T06:15:20;1.30;;;0.43;;
57155;SDS011;43023;59.928;10.682;2022-12-10T06:17:46;0.30;;;0.30;;
57155;SDS011;43023;59.928;10.682;2022-12-10T06:20:12;0.35;;;0.35;;
57155;SDS011;43023;59.928;10.682;2022-12-10T06:22:38;0.30;;;0.30;;
57155;SDS011;43023;59.928;10.682;2022-12-10T06:25:04;0.32;;;0.32;;
57155;SDS011;43023;59.928;10.682;2022-12-10T06:27:31;0.20;;;0.20;;
57155;SDS011;43023;59.928;10.682;2022-12-10T06:29:57;0.30;;;0.30;;
57155;SDS011;43023;59.928;10.682;2022-12-10T06:32:23;0.85;;;0.50;;
57155;SDS011;43023;59.928;10.682;2022-12-10T06:34:49;0.25;;;0.25;;
57155;SDS011;43023;59.928;10.682;2022-12-10T06:37:15;0.30;;;0.30;;
57155;SDS011;43023;59.928;10.682;2022-12-10T06:39:41;0.28;;;0.28;;
57155;SDS011;43023;59.928;10.682;2022-12-10T06:42:07;0.63;;;0.40;;
57155;SDS011;43023;59.928;10.682;2022-12-10T06:44:34;1.77;;;0.40;;
57155;SDS011;43023;59.928;10.682;2022-12-10T06:47:00;0.57;;;0.20;;
57155;SDS011;43023;59.928;10.682;2022-12-10T06:49:26;0.30;;;0.30;;
57155;SDS011;43023;59.928;10.682;2022-12-10T06:51:52;0.65;;;0.47;;
57155;SDS011;43023;59.928;10.682;2022-12-10T06:54:18;0.35;;;0.35;;
57155;SDS011;43023;59.928;10.682;2022-12-10T06:56:44;0.57;;;0.30;;
57155;SDS011;43023;59.928;10.682;2022-12-10T06:59:10;0.50;;;0.50;;
57155;SDS011;43023;59.928;10.682;2022-12-10T07:01:36;0.52;;;0.52;;
57155;SDS011;43023;59.928;10.682;2022-12-10T07:04:03;0.82;;;0.70;;
57155;SDS011;43023;59.928;10.682;2022-12-10T07:06:30;0.52;;;0.50;;
57155;SDS011;43023;59.928;10.682;2022-12-10T07:08:56;0.63;;;0.63;;
57155;SDS011;43023;59.928;10.682;2022-12-10T07:11:22;0.55;;;0.55;;
57155;SDS011;43023;59.928;10.682;2022-12-10T07:13:49;0.60;;;0.60;;
57155;SDS011;43023;59.928;10.682;2022-12-10T07:16:16;0.68;;;0.68;;
57155;SDS011;43023;59.928;10.682;2022-12-10T07:18:43;0.73;;;0.73;;
57155;SDS011;43023;59.928;10.682;2022-12-10T07:21:13;1.13;;;0.63;;
57155;SDS011;43023;59.928;10.682;2022-12-10T07:23:39;0.70;;;0.70;;
57155;SDS011;43023;59.928;10.682;2022-12-10T07:26:05;0.73;;;0.73;;
57155;SDS011;43023;59.928;10.682;2022-12-10T07:28:32;1.30;;;0.95;;
57155;SDS011;43023;59.928;10.682;2022-12-10T07:31:04;0.50;;;0.50;;
57155;SDS011;43023;59.928;10.682;2022-12-10T07:33:31;1.25;;;0.88;;
57155;SDS011;43023;59.928;10.682;2022-12-10T07:35:57;0.80;;;0.80;;
57155;SDS011;43023;59.928;10.682;2022-12-10T07:38:23;0.65;;;0.65;;
57155;SDS011;43023;59.928;10.682;2022-12-10T07:40:49;2.17;;;1.00;;
57155;SDS011;43023;59.928;10.682;2022-12-10T07:43:16;0.90;;;0.88;;
57155;SDS011;43023;59.928;10.682;2022-12-10T07:45:42;2.95;;;1.58;;
57155;SDS011;43023;59.928;10.682;2022-12-10T07:48:08;1.35;;;1.10;;
57155;SDS011;43023;59.928;10.682;2022-12-10T07:50:34;1.10;;;1.00;;
57155;SDS011;43023;59.928;10.682;2022-12-10T07:53:00;1.55;;;1.27;;
57155;SDS011;43023;59.928;10.682;2022-12-10T07:55:26;2.90;;;1.27;;
57155;SDS011;43023;59.928;10.682;2022-12-10T07:57:52;2.38;;;1.20;;
57155;SDS011;43023;59.928;10.682;2022-12-10T08:00:18;1.60;;;1.50;;
57155;SDS011;43023;59.928;10.682;2022-12-10T08:02:44;1.55;;;1.27;;
57155;SDS011;43023;59.928;10.682;2022-12-10T08:05:10;2.35;;;1.52;;
57155;SDS011;43023;59.928;10.682;2022-12-10T08:07:36;2.30;;;1.65;;
57155;SDS011;43023;59.928;10.682;2022-12-10T08:10:02;2.55;;;1.50;;
57155;SDS011;43023;59.928;10.682;2022-12-10T08:12:28;2.78;;;1.35;;
57155;SDS011;43023;59.928;10.682;2022-12-10T08:14:55;4.57;;;1.80;;
57155;SDS011;43023;59.928;10.682;2022-12-10T08:17:21;1.90;;;1.63;;
57155;SDS011;43023;59.928;10.682;2022-12-10T08:19:47;3.13;;;1.75;;
57155;SDS011;43023;59.928;10.682;2022-12-10T08:22:14;2.03;;;1.83;;
57155;SDS011;43023;59.928;10.682;2022-12-10T08:24:40;2.08;;;1.45;;
57155;SDS011;43023;59.928;10.682;2022-12-10T08:27:06;5.57;;;1.70;;
57155;SDS011;43023;59.928;10.682;2022-12-10T08:29:32;1.85;;;1.52;;
57155;SDS011;43023;59.928;10.682;2022-12-10T08:31:58;3.22;;;2.10;;
57155;SDS011;43023;59.928;10.682;2022-12-10T08:34:24;2.55;;;2.05;;
57155;SDS011;43023;59.928;10.682;2022-12-10T08:36:50;3.95;;;2.10;;
57155;SDS011;43023;59.928;10.682;2022-12-10T08:39:16;3.47;;;2.10;;
57155;SDS011;43023;59.928;10.682;2022-12-10T08:41:45;3.60;;;2.42;;
57155;SDS011;43023;59.928;10.682;2022-12-10T08:44:11;4.13;;;2.70;;
57155;SDS011;43023;59.928;10.682;2022-12-10T08:46:38;3.50;;;2.50;;
57155;SDS011;43023;59.928;10.682;2022-12-10T08:49:04;5.95;;;3.40;;
57155;SDS011;43023;59.928;10.682;2022-12-10T08:51:31;3.88;;;3.22;;
57155;SDS011;43023;59.928;10.682;2022-12-10T08:53:58;3.67;;;2.85;;
57155;SDS011;43023;59.928;10.682;2022-12-10T08:56:24;3.28;;;2.88;;
57155;SDS011;43023;59.928;10.682;2022-12-10T08:58:50;3.78;;;3.33;;
57155;SDS011;43023;59.928;10.682;2022-12-10T09:01:16;3.38;;;2.90;;
57155;SDS011;43023;59.928;10.682;2022-12-10T09:03:43;3.85;;;2.95;;
57155;SDS011;43023;59.928;10.682;2022-12-10T09:06:10;4.90;;;3.22;;
57155;SDS011;43023;59.928;10.682;2022-12-10T09:08:37;5.20;;;3.25;;
57155;SDS011;43023;59.928;10.682;2022-12-10T09:11:14;4.00;;;2.60;;
57155;SDS011;43023;59.928;10.682;2022-12-10T09:13:40;3.72;;;3.38;;
57155;SDS011;43023;59.928;10.682;2022-12-10T09:16:07;3.55;;;3.03;;
57155;SDS011;43023;59.928;10.682;2022-12-10T09:18:33;4.55;;;3.20;;
57155;SDS011;43023;59.928;10.682;2022-12-10T09:20:59;3.45;;;3.15;;
57155;SDS011;43023;59.928;10.682;2022-12-10T09:23:25;3.90;;;3.30;;
57155;SDS011;43023;59.928;10.682;2022-12-10T09:25:51;4.85;;;3.90;;
57155;SDS011;43023;59.928;10.682;2022-12-10T09:28:17;4.85;;;2.83;;
57155;SDS011;43023;59.928;10.682;2022-12-10T09:30:43;5.25;;;3.20;;
57155;SDS011;43023;59.928;10.682;2022-12-10T09:33:09;4.70;;;3.20;;
57155;SDS011;43023;59.928;10.682;2022-12-10T09:35:39;4.28;;;3.03;;
57155;SDS011;43023;59.928;10.682;2022-12-10T09:38:05;3.90;;;3.50;;
57155;SDS011;43023;59.928;10.682;2022-12-10T09:40:34;4.40;;;3.65;;
57155;SDS011;43023;59.928;10.682;2022-12-10T09:45:46;3.78;;;3.03;;
57155;SDS011;43023;59.928;10.682;2022-12-10T09:53:21;4.32;;;3.42;;
57155;SDS011;43023;59.928;10.682;2022-12-10T09:55:48;3.22;;;3.00;;
57155;SDS011;43023;59.928;10.682;2022-12-10T09:58:21;4.30;;;3.25;;
57155;SDS011;43023;59.928;10.682;2022-12-10T10:00:50;3.72;;;3.38;;
57155;SDS011;43023;59.928;10.682;2022-12-10T10:03:16;4.10;;;2.83;;
57155;SDS011;43023;59.928;10.682;2022-12-10T10:05:46;4.53;;;3.30;;
57155;SDS011;43023;59.928;10.682;2022-12-10T10:10:51;3.95;;;3.50;;
57155;SDS011;43023;59.928;10.682;2022-12-10T10:18:45;4.65;;;3.70;;
57155;SDS011;43023;59.928;10.682;2022-12-10T10:21:15;4.40;;;3.47;;
57155;SDS011;43023;59.928;10.682;2022-12-10T10:23:42;5.53;;;4.20;;
57155;SDS011;43023;59.928;10.682;2022-12-10T10:26:10;4.05;;;3.45;;
57155;SDS011;43023;59.928;10.682;2022-12-10T10:28:36;3.83;;;3.50;;
57155;SDS011;43023;59.928;10.682;2022-12-10T10:31:07;3.28;;;2.97;;
57155;SDS011;43023;59.928;10.682;2022-12-10T10:33:47;4.28;;;3.53;;
57155;SDS011;43023;59.928;10.682;2022-12-10T10:36:14;5.55;;;3.03;;
57155;SDS011;43023;59.928;10.682;2022-12-10T10:38:43;4.30;;;3.90;;
57155;SDS011;43023;59.928;10.682;2022-12-10T10:41:13;3.97;;;3.58;;
57155;SDS011;43023;59.928;10.682;2022-12-10T10:43:40;4.80;;;3.90;;
57155;SDS011;43023;59.928;10.682;2022-12-10T10:46:13;4.78;;;3.65;;
57155;SDS011;43023;59.928;10.682;2022-12-10T10:48:40;4.95;;;3.67;;
57155;SDS011;43023;59.928;10.682;2022-12-10T10:51:07;3.50;;;3.20;;
57155;SDS011;43023;59.928;10.682;2022-12-10T10:53:43;3.67;;;3.17;;
57155;SDS011;43023;59.928;10.682;2022-12-10T10:56:14;4.07;;;3.30;;
57155;SDS011;43023;59.928;10.682;2022-12-10T11:01:24;4.22;;;3.00;;
57155;SDS011;43023;59.928;10.682;2022-12-10T11:03:55;4.80;;;3.72;;
57155;SDS011;43023;59.928;10.682;2022-12-10T11:06:22;3.50;;;3.20;;
57155;SDS011;43023;59.928;10.682;2022-12-10T11:08:49;3.45;;;3.03;;
57155;SDS011;43023;59.928;10.682;2022-12-10T11:11:18;3.35;;;3.05;;
57155;SDS011;43023;59.928;10.682;2022-12-10T11:13:44;4.22;;;3.10;;
57155;SDS011;43023;59.928;10.682;2022-12-10T11:18:41;4.10;;;2.90;;
57155;SDS011;43023;59.928;10.682;2022-12-10T11:23:52;5.22;;;2.95;;
57155;SDS011;43023;59.928;10.682;2022-12-10T11:32:19;3.13;;;2.78;;
57155;SDS011;43023;59.928;10.682;2022-12-10T11:34:38;2.72;;;2.40;;
57155;SDS011;43023;59.928;10.682;2022-12-10T11:37:14;3.45;;;2.80;;
57155;SDS011;43023;59.928;10.682;2022-12-10T11:39:47;3.17;;;2.40;;
57155;SDS011;43023;59.928;10.682;2022-12-10T11:42:23;3.78;;;2.67;;
57155;SDS011;43023;59.928;10.682;2022-12-10T11:57:30;2.38;;;2.17;;
57155;SDS011;43023;59.928;10.682;2022-12-10T12:00:05;5.20;;;2.67;;
57155;SDS011;43023;59.928;10.682;2022-12-10T12:08:39;2.08;;;1.88;;
57155;SDS011;43023;59.928;10.682;2022-12-10T12:13:35;2.95;;;2.13;;
57155;SDS011;43023;59.928;10.682;2022-12-10T12:16:19;1.98;;;1.77;;
57155;SDS011;43023;59.928;10.682;2022-12-10T12:18:59;2.53;;;1.70;;
57155;SDS011;43023;59.928;10.682;2022-12-10T12:21:25;2.47;;;1.73;;
57155;SDS011;43023;59.928;10.682;2022-12-10T12:23:59;2.88;;;1.73;;
57155;SDS011;43023;59.928;10.682;2022-12-10T12:26:28;3.85;;;2.33;;
57155;SDS011;43023;59.928;10.682;2022-12-10T12:28:59;3.15;;;1.90;;
57155;SDS011;43023;59.928;10.682;2022-12-10T12:31:31;1.67;;;1.58;;
57155;SDS011;43023;59.928;10.682;2022-12-10T12:34:13;2.03;;;1.83;;
57155;SDS011;43023;59.928;10.682;2022-12-10T12:36:41;1.65;;;1.50;;
57155;SDS011;43023;59.928;10.682;2022-12-10T12:41:57;1.50;;;1.40;;
57155;SDS011;43023;59.928;10.682;2022-12-10T12:44:33;1.60;;;1.38;;
57155;SDS011;43023;59.928;10.682;2022-12-10T12:47:05;2.65;;;1.73;;
57155;SDS011;43023;59.928;10.682;2022-12-10T12:49:37;2.50;;;1.70;;
57155;SDS011;43023;59.928;10.682;2022-12-10T12:57:20;2.17;;;1.33;;
57155;SDS011;43023;59.928;10.682;2022-12-10T13:04:47;1.35;;;1.23;;
57155;SDS011;43023;59.928;10.682;2022-12-10T13:09:45;1.50;;;1.10;;
57155;SDS011;43023;59.928;10.682;2022-12-10T13:12:17;1.67;;;1.17;;
57155;SDS011;43023;59.928;10.682;2022-12-10T13:14:54;1.38;;;1.10;;
57155;SDS011;43023;59.928;10.682;2022-12-10T13:17:32;1.38;;;1.20;;
57155;SDS011;43023;59.928;10.682;2022-12-10T13:22:54;1.63;;;1.10;;
57155;SDS011;43023;59.928;10.682;2022-12-10T13:25:21;1.15;;;0.93;;
57155;SDS011;43023;59.928;10.682;2022-12-10T13:28:17;1.48;;;1.05;;
57155;SDS011;43023;59.928;10.682;2022-12-10T13:31:05;4.20;;;1.40;;
57155;SDS011;43023;59.928;10.682;2022-12-10T13:38:54;1.08;;;0.98;;
57155;SDS011;43023;59.928;10.682;2022-12-10T13:41:20;0.95;;;0.75;;
57155;SDS011;43023;59.928;10.682;2022-12-10T13:44:24;0.95;;;0.95;;
57155;SDS011;43023;59.928;10.682;2022-12-10T13:46:57;1.10;;;0.85;;
57155;SDS011;43023;59.928;10.682;2022-12-10T13:49:27;1.77;;;0.80;;
57155;SDS011;43023;59.928;10.682;2022-12-10T13:59:50;0.60;;;0.60;;
57155;SDS011;43023;59.928;10.682;2022-12-10T14:07:28;1.33;;;0.70;;
57155;SDS011;43023;59.928;10.682;2022-12-10T14:09:56;2.03;;;0.90;;
57155;SDS011;43023;59.928;10.682;2022-12-10T14:12:30;1.25;;;0.90;;
57155;SDS011;43023;59.928;10.682;2022-12-10T14:15:04;1.90;;;0.68;;
57155;SDS011;43023;59.928;10.682;2022-12-10T14:17:32;0.60;;;0.60;;
57155;SDS011;43023;59.928;10.682;2022-12-10T14:19:59;1.40;;;0.90;;
57155;SDS011;43023;59.928;10.682;2022-12-10T14:24:51;2.47;;;0.90;;
57155;SDS011;43023;59.928;10.682;2022-12-10T14:27:19;0.60;;;0.60;;
57155;SDS011;43023;59.928;10.682;2022-12-10T14:29:46;1.45;;;0.77;;
57155;SDS011;43023;59.928;10.682;2022-12-10T14:32:13;0.90;;;0.90;;
57155;SDS011;43023;59.928;10.682;2022-12-10T14:34:40;0.90;;;0.60;;
57155;SDS011;43023;59.928;10.682;2022-12-10T14:37:06;2.45;;;0.80;;
57155;SDS011;43023;59.928;10.682;2022-12-10T14:39:38;2.15;;;0.98;;
57155;SDS011;43023;59.928;10.682;2022-12-10T14:42:05;3.38;;;0.70;;
57155;SDS011;43023;59.928;10.682;2022-12-10T14:44:34;3.42;;;0.60;;
57155;SDS011;43023;59.928;10.682;2022-12-10T14:47:03;1.08;;;0.80;;
57155;SDS011;43023;59.928;10.682;2022-12-10T14:49:30;0.93;;;0.93;;
57155;SDS011;43023;59.928;10.682;2022-12-10T14:51:56;0.80;;;0.70;;
57155;SDS011;43023;59.928;10.682;2022-12-10T14:54:23;2.47;;;1.02;;
57155;SDS011;43023;59.928;10.682;2022-12-10T14:56:50;4.88;;;1.00;;
57155;SDS011;43023;59.928;10.682;2022-12-10T14:59:18;8.52;;;1.35;;
57155;SDS011;43023;59.928;10.682;2022-12-10T15:01:47;1.70;;;0.75;;
57155;SDS011;43023;59.928;10.682;2022-12-10T15:04:18;8.35;;;1.77;;
57155;SDS011;43023;59.928;10.682;2022-12-10T15:06:44;3.72;;;1.52;;
57155;SDS011;43023;59.928;10.682;2022-12-10T15:09:21;2.85;;;0.68;;
57155;SDS011;43023;59.928;10.682;2022-12-10T15:11:54;5.47;;;1.00;;
57155;SDS011;43023;59.928;10.682;2022-12-10T15:14:21;4.95;;;1.33;;
57155;SDS011;43023;59.928;10.682;2022-12-10T15:16:48;3.25;;;1.30;;
57155;SDS011;43023;59.928;10.682;2022-12-10T15:21:46;2.20;;;1.00;;
57155;SDS011;43023;59.928;10.682;2022-12-10T15:24:58;4.40;;;1.27;;
57155;SDS011;43023;59.928;10.682;2022-12-10T15:26:59;2.95;;;1.60;;
57155;SDS011;43023;59.928;10.682;2022-12-10T15:32:05;3.28;;;1.15;;
57155;SDS011;43023;59.928;10.682;2022-12-10T15:34:39;1.92;;;1.70;;
57155;SDS011;43023;59.928;10.682;2022-12-10T15:37:05;5.82;;;1.60;;
57155;SDS011;43023;59.928;10.682;2022-12-10T15:39:33;3.03;;;1.83;;
57155;SDS011;43023;59.928;10.682;2022-12-10T15:42:05;2.85;;;1.95;;
57155;SDS011;43023;59.928;10.682;2022-12-10T15:44:32;7.82;;;2.25;;
57155;SDS011;43023;59.928;10.682;2022-12-10T15:47:14;5.35;;;2.30;;
57155;SDS011;43023;59.928;10.682;2022-12-10T15:49:42;6.60;;;2.35;;
57155;SDS011;43023;59.928;10.682;2022-12-10T15:52:11;2.75;;;2.17;;
57155;SDS011;43023;59.928;10.682;2022-12-10T15:54:39;3.45;;;2.42;;
57155;SDS011;43023;59.928;10.682;2022-12-10T15:57:13;5.70;;;2.75;;
57155;SDS011;43023;59.928;10.682;2022-12-10T15:59:40;3.63;;;2.40;;
57155;SDS011;43023;59.928;10.682;2022-12-10T16:04:51;3.78;;;2.28;;
57155;SDS011;43023;59.928;10.682;2022-12-10T16:07:17;3.90;;;2.88;;
57155;SDS011;43023;59.928;10.682;2022-12-10T16:09:44;4.72;;;3.08;;
57155;SDS011;43023;59.928;10.682;2022-12-10T16:12:11;3.20;;;2.90;;
57155;SDS011;43023;59.928;10.682;2022-12-10T16:14:37;3.95;;;3.00;;
57155;SDS011;43023;59.928;10.682;2022-12-10T16:17:03;4.57;;;3.65;;
57155;SDS011;43023;59.928;10.682;2022-12-10T16:19:29;8.50;;;3.67;;
57155;SDS011;43023;59.928;10.682;2022-12-10T16:21:56;5.57;;;4.40;;
57155;SDS011;43023;59.928;10.682;2022-12-10T16:24:22;5.65;;;4.25;;
57155;SDS011;43023;59.928;10.682;2022-12-10T16:26:48;6.68;;;4.07;;
57155;SDS011;43023;59.928;10.682;2022-12-10T16:29:14;8.70;;;4.65;;
57155;SDS011;43023;59.928;10.682;2022-12-10T16:31:41;6.72;;;4.68;;
57155;SDS011;43023;59.928;10.682;2022-12-10T16:34:07;7.35;;;4.65;;